Time;durP1;ratioP1;P1;durP2;ratioP2;P2;SDS_P1;SDS_P2;PMS_P1;PMS_P2;Temp;Humidity;BMP_temperature;BMP_pressure;BME280_temperature;BME280_humidity;BME280_pressure;Samples;Min_cycle;Max_cycle;Signal;HPM_P1;HPM_P2
2023/10/08 00:03:11;;;;;;;6.10;4.57;;;14.80;96.50;;;;;;5004462;28;20460;-67
2023/10/08 00:05:37;;;;;;;10.57;4.93;;;14.80;97.40;;;;;;5004769;28;20868;-68
2023/10/08 00:08:04;;;;;;;7.03;4.47;;;14.80;96.90;;;;;;4999032;28;20505;-67
2023/10/08 00:10:35;;;;;;;7.03;4.23;;;14.80;97.00;;;;;;4992571;28;20528;-66
2023/10/08 00:13:00;;;;;;;7.10;4.50;;;14.80;95.80;;;;;;4994838;28;20415;-67
2023/10/08 00:15:26;;;;;;;7.20;4.80;;;15.00;94.50;;;;;;4994396;28;20500;-66
2023/10/08 00:17:54;;;;;;;5.70;4.80;;;15.10;93.90;;;;;;4995228;28;20164;-67
2023/10/08 00:20:25;;;;;;;7.80;4.63;;;15.10;93.70;;;;;;4993877;28;20231;-67
2023/10/08 00:22:54;;;;;;;8.20;4.60;;;15.10;93.40;;;;;;4994041;28;20546;-67
2023/10/08 00:25:20;;;;;;;5.90;5.30;;;15.20;93.30;;;;;;4993076;28;20439;-66
2023/10/08 00:27:49;;;;;;;6.37;4.70;;;15.20;93.20;;;;;;4993274;28;20787;-67
2023/10/08 00:30:17;;;;;;;6.47;4.80;;;15.20;93.00;;;;;;4993066;28;20195;-68
2023/10/08 00:32:44;;;;;;;6.37;4.53;;;15.20;93.30;;;;;;4994589;28;20414;-67
2023/10/08 00:35:20;;;;;;;6.60;4.97;;;15.20;94.10;;;;;;4993884;28;20411;-67
2023/10/08 00:37:48;;;;;;;6.50;4.47;;;15.20;99.40;;;;;;4992313;28;20529;-67
2023/10/08 00:40:19;;;;;;;7.30;4.40;;;15.10;98.80;;;;;;4993326;28;20449;-68
2023/10/08 00:42:46;;;;;;;5.83;4.50;;;15.10;97.30;;;;;;4994515;28;20418;-68
2023/10/08 00:45:14;;;;;;;6.40;4.50;;;15.00;98.80;;;;;;4992660;28;20449;-67
2023/10/08 00:47:43;;;;;;;10.73;7.30;;;15.00;97.90;;;;;;4992209;28;20434;-67
2023/10/08 00:50:19;;;;;;;7.77;5.27;;;14.90;96.10;;;;;;4993845;28;20451;-67
2023/10/08 00:52:57;;;;;;;7.37;4.07;;;15.00;95.80;;;;;;4987066;28;20429;-67
2023/10/08 00:55:28;;;;;;;6.47;4.60;;;15.00;95.80;;;;;;4994502;28;20426;-67
2023/10/08 00:57:58;;;;;;;7.63;4.03;;;15.00;95.00;;;;;;4993707;28;20514;-67
2023/10/08 01:00:32;;;;;;;6.50;4.10;;;15.10;94.30;;;;;;4993455;28;20453;-67
2023/10/08 01:03:01;;;;;;;8.30;5.17;;;15.10;94.10;;;;;;4993131;28;20798;-68
2023/10/08 01:05:49;;;;;;;7.17;4.37;;;15.10;93.70;;;;;;4992540;28;20799;-67
2023/10/08 01:08:22;;;;;;;5.80;4.40;;;15.10;93.60;;;;;;4988635;28;20438;-66
2023/10/08 01:10:48;;;;;;;5.93;4.30;;;15.10;93.50;;;;;;4985853;28;20568;-67
2023/10/08 01:13:19;;;;;;;7.53;4.87;;;15.10;93.50;;;;;;4993774;28;20493;-67
2023/10/08 01:15:47;;;;;;;6.90;5.63;;;15.10;93.70;;;;;;4994202;28;20451;-67
2023/10/08 01:18:18;;;;;;;4.77;3.80;;;15.10;93.90;;;;;;4992066;28;20802;-68
2023/10/08 01:23:26;;;;;;;6.50;4.40;;;15.10;95.80;;;;;;4993680;28;20419;-67
2023/10/08 01:25:52;;;;;;;7.10;4.27;;;15.00;96.80;;;;;;4993335;28;20466;-68
2023/10/08 01:28:31;;;;;;;5.77;3.87;;;15.00;97.40;;;;;;4990288;28;20474;-67
2023/10/08 01:31:00;;;;;;;6.07;4.30;;;14.90;97.90;;;;;;4993700;28;20807;-67
2023/10/08 01:33:37;;;;;;;8.00;4.53;;;14.80;99.40;;;;;;4993851;28;20415;-67
2023/10/08 01:36:04;;;;;;;5.17;4.00;;;14.70;99.30;;;;;;4991489;28;20509;-66
2023/10/08 01:38:32;;;;;;;5.53;4.13;;;14.60;99.90;;;;;;4992634;28;20513;-67
2023/10/08 01:41:03;;;;;;;5.40;3.70;;;14.60;99.90;;;;;;4992252;28;20443;-67
2023/10/08 01:43:29;;;;;;;9.43;6.40;;;14.60;99.90;;;;;;4992221;28;20435;-67
2023/10/08 01:45:55;;;;;;;8.20;4.73;;;14.50;99.40;;;;;;4993163;28;20932;-67
2023/10/08 01:48:27;;;;;;;6.93;4.53;;;14.60;99.70;;;;;;4990526;28;20453;-67
2023/10/08 01:51:01;;;;;;;5.47;3.77;;;14.50;99.90;;;;;;4993347;28;20560;-67
2023/10/08 01:53:27;;;;;;;5.57;4.73;;;14.40;99.90;;;;;;4992369;28;21055;-67
2023/10/08 01:55:53;;;;;;;6.67;4.40;;;14.40;99.90;;;;;;4993271;28;20549;-67
2023/10/08 01:58:19;;;;;;;7.00;4.90;;;14.30;99.90;;;;;;4991278;28;20529;-67
2023/10/08 02:00:46;;;;;;;9.73;4.20;;;14.30;99.90;;;;;;4993123;28;20453;-67
2023/10/08 02:03:16;;;;;;;8.73;4.93;;;14.20;99.90;;;;;;4992115;28;20465;-67
2023/10/08 02:05:45;;;;;;;7.80;4.63;;;14.10;99.90;;;;;;4985700;28;20868;-66
2023/10/08 02:08:12;;;;;;;7.50;4.43;;;14.10;99.90;;;;;;4990996;28;20845;-67
2023/10/08 02:10:42;;;;;;;6.90;3.90;;;14.00;99.90;;;;;;4991859;28;21001;-67
2023/10/08 02:13:09;;;;;;;6.07;4.40;;;14.00;99.90;;;;;;4992716;28;20429;-66
2023/10/08 02:15:43;;;;;;;5.73;4.50;;;14.00;99.90;;;;;;4990000;28;20576;-67
2023/10/08 02:18:08;;;;;;;5.03;3.37;;;14.00;99.90;;;;;;4989980;28;20880;-67
2023/10/08 02:20:34;;;;;;;10.50;4.97;;;14.00;99.90;;;;;;4991188;28;20493;-66
2023/10/08 02:22:59;;;;;;;8.60;4.70;;;13.90;99.90;;;;;;4992438;28;20671;-66
2023/10/08 02:25:26;;;;;;;6.10;4.07;;;13.90;99.90;;;;;;4992934;28;20167;-67
2023/10/08 02:27:51;;;;;;;6.30;4.90;;;13.80;99.90;;;;;;4991985;28;20297;-67
2023/10/08 02:30:17;;;;;;;6.33;3.73;;;13.80;99.90;;;;;;4990081;28;20494;-67
2023/10/08 02:32:43;;;;;;;7.47;4.20;;;13.70;99.90;;;;;;4992086;28;20668;-67
2023/10/08 02:35:11;;;;;;;6.63;4.43;;;13.60;99.90;;;;;;4991704;28;20432;-67
2023/10/08 02:37:39;;;;;;;5.90;4.40;;;13.60;99.90;;;;;;4992525;28;20538;-67
2023/10/08 02:40:14;;;;;;;4.80;3.60;;;13.60;99.90;;;;;;4990672;28;20986;-66
2023/10/08 02:42:41;;;;;;;6.33;3.97;;;13.50;99.90;;;;;;4984539;28;20426;-66
2023/10/08 02:45:13;;;;;;;7.00;4.60;;;13.50;99.90;;;;;;4988777;28;20453;-66
2023/10/08 02:47:45;;;;;;;7.17;4.03;;;13.50;99.90;;;;;;4986625;28;20439;-66
2023/10/08 02:50:11;;;;;;;6.73;4.70;;;13.50;99.90;;;;;;4989470;28;20824;-67
2023/10/08 02:52:36;;;;;;;5.43;3.57;;;13.50;99.90;;;;;;4992148;28;20967;-67
2023/10/08 02:55:02;;;;;;;7.07;4.37;;;13.50;99.90;;;;;;4991681;28;20449;-66
2023/10/08 02:57:30;;;;;;;8.53;4.53;;;13.50;99.90;;;;;;4992310;28;20199;-66
2023/10/08 02:59:55;;;;;;;6.50;4.13;;;13.50;99.90;;;;;;4990688;28;20207;-67
2023/10/08 03:02:21;;;;;;;6.47;4.57;;;13.50;99.90;;;;;;4992302;28;20791;-67
2023/10/08 03:04:50;;;;;;;9.30;5.90;;;13.50;99.90;;;;;;4992203;28;20183;-67
2023/10/08 03:07:26;;;;;;;7.07;4.87;;;13.50;99.90;;;;;;4991507;28;20187;-67
2023/10/08 03:10:03;;;;;;;8.17;4.50;;;13.50;99.90;;;;;;4990265;28;20539;-67
2023/10/08 03:12:32;;;;;;;7.70;4.83;;;13.50;99.90;;;;;;4991777;28;20445;-67
2023/10/08 03:15:01;;;;;;;6.40;4.17;;;13.50;99.90;;;;;;4992178;28;20431;-66
2023/10/08 03:17:30;;;;;;;6.43;4.13;;;13.60;99.90;;;;;;4990299;28;20450;-67
2023/10/08 03:20:01;;;;;;;6.07;4.50;;;13.60;99.90;;;;;;4991194;28;20450;-66
2023/10/08 03:22:33;;;;;;;8.20;3.70;;;13.50;99.90;;;;;;4991263;28;20438;-67
2023/10/08 03:25:14;;;;;;;5.77;4.30;;;13.40;99.90;;;;;;4992342;28;20465;-66
2023/10/08 03:27:41;;;;;;;7.50;3.93;;;13.30;99.90;;;;;;4992717;28;20752;-67
2023/10/08 03:30:13;;;;;;;8.70;4.80;;;13.30;99.90;;;;;;4990282;28;20470;-67
2023/10/08 03:32:41;;;;;;;9.13;4.80;;;13.30;99.90;;;;;;4989822;28;20878;-67
2023/10/08 03:35:10;;;;;;;5.23;3.83;;;13.30;99.90;;;;;;4992053;28;20441;-67
2023/10/08 03:37:41;;;;;;;7.63;4.60;;;13.30;99.90;;;;;;4992115;28;20430;-67
2023/10/08 03:40:25;;;;;;;5.80;4.47;;;13.20;99.90;;;;;;4991214;28;20453;-67
2023/10/08 03:42:51;;;;;;;8.67;4.87;;;13.10;99.90;;;;;;4992409;28;20430;-67
2023/10/08 03:45:48;;;;;;;9.60;5.07;;;13.10;99.90;;;;;;4995957;28;20807;-66
2023/10/08 03:48:06;;;;;;;6.53;3.80;;;13.10;99.90;;;;;;4995730;28;20422;-67
2023/10/08 03:50:41;;;;;;;11.03;4.83;;;13.00;99.90;;;;;;4993509;28;20588;-66
2023/10/08 03:53:13;;;;;;;7.23;4.70;;;13.00;99.90;;;;;;4993058;28;20430;-66
2023/10/08 03:55:42;;;;;;;5.33;4.00;;;13.00;99.90;;;;;;4994640;28;20524;-67
2023/10/08 03:58:27;;;;;;;5.17;4.33;;;12.90;99.90;;;;;;4995658;28;20481;-67
2023/10/08 04:01:06;;;;;;;7.87;4.17;;;12.90;99.90;;;;;;4995518;28;20580;-66
2023/10/08 04:03:51;;;;;;;5.93;4.20;;;12.80;99.90;;;;;;4994448;28;20478;-66
2023/10/08 04:06:22;;;;;;;6.97;4.43;;;12.80;99.90;;;;;;4994384;28;20438;-66
2023/10/08 04:11:35;;;;;;;6.60;4.43;;;12.80;99.90;;;;;;4991988;28;20509;-67
2023/10/08 04:14:02;;;;;;;12.03;4.90;;;12.70;99.90;;;;;;4994113;28;20450;-67
2023/10/08 04:16:28;;;;;;;4.97;4.47;;;12.70;99.90;;;;;;4994188;28;21097;-66
2023/10/08 04:18:55;;;;;;;8.60;7.50;;;12.70;99.90;;;;;;4995097;28;20426;-66
2023/10/08 04:21:22;;;;;;;12.20;6.03;;;12.70;99.90;;;;;;4995093;28;20454;-67
2023/10/08 04:23:53;;;;;;;6.60;4.70;;;12.70;99.90;;;;;;4990171;28;20466;-66
2023/10/08 04:26:23;;;;;;;10.70;4.87;;;12.70;99.90;;;;;;4991331;28;20452;-66
2023/10/08 04:28:54;;;;;;;5.77;4.43;;;12.70;99.90;;;;;;4994908;28;21046;-67
2023/10/08 04:31:24;;;;;;;7.17;5.20;;;12.70;99.90;;;;;;4993105;28;20475;-67
2023/10/08 04:33:50;;;;;;;8.20;4.37;;;12.70;99.90;;;;;;4992147;28;20449;-66
2023/10/08 04:36:19;;;;;;;5.73;3.80;;;12.80;99.90;;;;;;4992884;28;20708;-67
2023/10/08 04:38:47;;;;;;;5.97;4.13;;;12.80;99.90;;;;;;4994219;28;21075;-66
2023/10/08 04:41:17;;;;;;;8.30;4.77;;;12.80;99.90;;;;;;4993667;28;20458;-66
2023/10/08 04:43:42;;;;;;;4.40;3.97;;;12.90;99.90;;;;;;4989633;28;20967;-67
2023/10/08 04:46:19;;;;;;;9.03;4.17;;;12.90;99.90;;;;;;4993917;28;20525;-66
2023/10/08 04:48:55;;;;;;;7.93;3.80;;;12.90;99.90;;;;;;4994662;28;20546;-67
2023/10/08 04:51:22;;;;;;;5.47;3.70;;;12.90;99.90;;;;;;4992971;28;20454;-67
2023/10/08 04:53:48;;;;;;;7.13;4.93;;;12.90;99.90;;;;;;4991993;28;20442;-67
2023/10/08 04:56:16;;;;;;;7.07;4.40;;;12.90;99.90;;;;;;4993471;28;20461;-67
2023/10/08 04:58:47;;;;;;;6.43;4.27;;;12.90;99.90;;;;;;4994372;28;20251;-67
2023/10/08 05:17:45;;;;;;;9.47;4.30;;;13.00;99.90;;;;;;5033751;28;20452;-71
2023/10/08 05:20:09;;;;;;;6.70;4.50;;;13.00;99.90;;;;;;5030266;28;20491;-72
2023/10/08 05:30:17;;;;;;;6.70;4.83;;;13.00;99.90;;;;;;5032300;28;20466;-72
2023/10/08 06:02:29;;;;;;;8.10;6.40;;;12.70;99.90;;;;;;5041996;28;20437;-72
2023/10/08 06:05:20;;;;;;;11.90;7.37;;;12.80;99.90;;;;;;5030944;28;20437;-72
2023/10/08 06:18:25;;;;;;;6.83;4.30;;;13.00;99.90;;;;;;5029433;28;20524;-72
2023/10/08 06:21:11;;;;;;;5.63;4.13;;;13.20;99.90;;;;;;5032251;28;20440;-73
2023/10/08 06:23:39;;;;;;;6.70;5.30;;;13.30;99.90;;;;;;5033823;28;20514;-73
2023/10/08 06:26:13;;;;;;;7.07;4.73;;;13.40;99.90;;;;;;5035938;28;20793;-72
2023/10/08 06:28:41;;;;;;;9.30;6.47;;;13.50;99.90;;;;;;5026472;28;20436;-73
2023/10/08 06:31:11;;;;;;;8.80;5.00;;;13.60;99.90;;;;;;5030534;28;20441;-72
2023/10/08 06:33:37;;;;;;;7.50;6.00;;;13.60;99.90;;;;;;5042338;28;20777;-72
2023/10/08 06:36:15;;;;;;;5.20;4.63;;;13.70;99.90;;;;;;5033771;28;20457;-72
2023/10/08 06:38:51;;;;;;;5.27;4.13;;;13.80;99.90;;;;;;5027621;28;20591;-72
2023/10/08 06:41:19;;;;;;;6.43;3.70;;;13.80;99.90;;;;;;5037749;28;20836;-72
2023/10/08 06:43:49;;;;;;;5.70;4.27;;;13.90;99.90;;;;;;5044298;28;20420;-72
2023/10/08 06:46:22;;;;;;;6.53;4.60;;;13.90;99.90;;;;;;5032072;28;20436;-72
2023/10/08 06:48:49;;;;;;;15.60;5.53;;;14.00;99.90;;;;;;5030990;28;20439;-71
2023/10/08 06:51:17;;;;;;;6.77;4.83;;;14.00;99.90;;;;;;5031889;28;20451;-72
2023/10/08 06:53:44;;;;;;;8.40;4.50;;;14.00;99.90;;;;;;5031631;28;20500;-72
2023/10/08 06:56:18;;;;;;;6.47;4.83;;;14.10;99.90;;;;;;5030764;28;20492;-72
2023/10/08 06:58:47;;;;;;;10.53;6.10;;;14.20;99.90;;;;;;5038859;28;20428;-72
2023/10/08 07:01:20;;;;;;;8.90;4.87;;;14.20;99.90;;;;;;5046064;28;20443;-72
2023/10/08 07:03:49;;;;;;;6.00;4.33;;;14.40;99.90;;;;;;5031680;28;20587;-72
2023/10/08 07:06:25;;;;;;;11.60;5.43;;;14.70;99.90;;;;;;5031065;28;20472;-71
2023/10/08 07:08:54;;;;;;;8.80;7.17;;;15.10;99.90;;;;;;5042814;28;20462;-72
2023/10/08 07:11:21;;;;;;;12.17;9.67;;;15.70;99.90;;;;;;5043244;28;20467;-72
2023/10/08 07:13:47;;;;;;;7.50;4.47;;;16.30;99.90;;;;;;5051436;28;20424;-72
2023/10/08 07:16:17;;;;;;;10.00;7.90;;;16.80;99.90;;;;;;5042114;28;20551;-72
2023/10/08 07:18:50;;;;;;;7.63;6.27;;;17.30;99.90;;;;;;5035225;28;20199;-71
2023/10/08 07:21:15;;;;;;;8.50;6.00;;;17.70;99.90;;;;;;5031040;28;20817;-71
2023/10/08 07:23:56;;;;;;;8.33;5.70;;;18.00;99.90;;;;;;5035226;28;20447;-71
2023/10/08 07:26:26;;;;;;;7.23;5.93;;;18.30;99.90;;;;;;5033509;28;20666;-71
2023/10/08 07:28:52;;;;;;;8.37;5.83;;;18.40;99.90;;;;;;5042760;28;20447;-71
2023/10/08 07:31:23;;;;;;;7.30;5.17;;;18.30;99.90;;;;;;5052567;28;20944;-72
2023/10/08 07:33:58;;;;;;;7.50;5.20;;;18.40;99.90;;;;;;5055333;28;20764;-73
2023/10/08 07:36:29;;;;;;;10.50;5.20;;;19.10;99.90;;;;;;5040350;28;20463;-73
2023/10/08 07:38:54;;;;;;;5.50;4.63;;;19.60;99.90;;;;;;5039207;28;20952;-72
2023/10/08 07:41:20;;;;;;;7.67;5.37;;;19.80;99.90;;;;;;5043692;28;20575;-73
2023/10/08 07:43:55;;;;;;;7.10;5.13;;;19.80;99.40;;;;;;5042380;28;20265;-72
2023/10/08 07:46:26;;;;;;;5.90;4.47;;;19.80;98.10;;;;;;5046469;28;20470;-71
2023/10/08 07:48:52;;;;;;;7.17;4.80;;;19.80;98.80;;;;;;5039305;28;20446;-72
2023/10/08 07:51:21;;;;;;;7.97;5.23;;;19.70;99.40;;;;;;5034314;28;20468;-71
2023/10/08 07:53:48;;;;;;;5.00;3.70;;;19.70;98.30;;;;;;5041843;28;20855;-71
2023/10/08 07:56:14;;;;;;;7.23;4.70;;;19.70;97.50;;;;;;5034994;28;20506;-70
2023/10/08 07:58:39;;;;;;;8.90;7.60;;;19.50;98.60;;;;;;5036101;28;20447;-73
2023/10/08 08:01:07;;;;;;;8.00;5.20;;;19.80;98.90;;;;;;5044392;28;20612;-72
2023/10/08 08:03:34;;;;;;;6.63;4.47;;;20.20;99.10;;;;;;5030797;28;20182;-72
2023/10/08 08:06:00;;;;;;;13.90;4.50;;;20.50;97.50;;;;;;5034713;28;20905;-73
2023/10/08 08:08:27;;;;;;;5.57;3.93;;;20.60;96.30;;;;;;5034843;28;20917;-73
2023/10/08 08:10:57;;;;;;;7.77;4.97;;;20.60;95.10;;;;;;5034691;28;20479;-72
2023/10/08 08:13:27;;;;;;;7.40;4.47;;;20.50;95.60;;;;;;5034213;28;20447;-71
2023/10/08 08:15:58;;;;;;;7.70;5.07;;;20.30;95.60;;;;;;5043614;28;21029;-72
2023/10/08 08:18:32;;;;;;;8.90;4.90;;;20.10;97.20;;;;;;5031183;28;20527;-70
2023/10/08 08:21:01;;;;;;;5.87;4.50;;;20.10;99.40;;;;;;5042620;28;20931;-72
2023/10/08 08:23:31;;;;;;;6.50;4.70;;;20.10;99.80;;;;;;5052646;28;20420;-72
2023/10/08 08:26:12;;;;;;;6.67;4.70;;;20.00;98.20;;;;;;5054495;28;20843;-72
2023/10/08 08:28:39;;;;;;;11.20;5.90;;;20.10;96.70;;;;;;5043453;28;20490;-72
2023/10/08 08:31:13;;;;;;;6.57;5.57;;;20.50;98.70;;;;;;5042534;28;20443;-73
2023/10/08 08:33:53;;;;;;;7.77;6.50;;;21.50;98.50;;;;;;5025624;28;20523;-73
2023/10/08 08:36:20;;;;;;;6.30;4.43;;;22.80;94.00;;;;;;5033314;28;20467;-73
2023/10/08 08:38:47;;;;;;;9.87;4.47;;;24.00;90.30;;;;;;5032565;28;20946;-72
2023/10/08 08:41:13;;;;;;;8.23;4.57;;;24.70;82.60;;;;;;5040094;28;20455;-73
2023/10/08 08:43:44;;;;;;;7.57;4.80;;;24.90;75.30;;;;;;5037326;28;20424;-73
2023/10/08 08:46:12;;;;;;;7.97;4.00;;;24.90;69.40;;;;;;5054177;28;20171;-73
2023/10/08 08:48:44;;;;;;;5.57;4.07;;;25.00;66.00;;;;;;5051061;28;20523;-73
2023/10/08 08:51:10;;;;;;;7.20;3.80;;;25.60;66.00;;;;;;5032848;28;20526;-73
2023/10/08 08:53:36;;;;;;;6.83;4.77;;;25.40;62.30;;;;;;5032924;28;20455;-72
2023/10/08 08:56:05;;;;;;;8.27;3.73;;;25.30;61.10;;;;;;5037762;28;20228;-73
2023/10/08 08:58:33;;;;;;;5.37;4.47;;;25.50;61.30;;;;;;5040454;28;20439;-73
2023/10/08 09:01:00;;;;;;;31.43;5.20;;;26.10;61.30;;;;;;5039842;28;20991;-73
2023/10/08 09:03:30;;;;;;;8.00;4.10;;;26.80;60.30;;;;;;5045128;28;20513;-70
2023/10/08 09:05:59;;;;;;;6.17;4.50;;;26.60;57.00;;;;;;5035226;28;20791;-72
2023/10/08 09:08:41;;;;;;;5.53;4.83;;;25.90;57.60;;;;;;5032808;28;20436;-73
2023/10/08 09:11:08;;;;;;;8.63;7.60;;;25.30;57.00;;;;;;5038168;28;20482;-73
2023/10/08 09:13:34;;;;;;;9.40;4.77;;;24.50;58.50;;;;;;5040498;28;20445;-73
2023/10/08 09:16:08;;;;;;;9.43;5.13;;;23.80;60.40;;;;;;5032675;28;20897;-73
2023/10/08 09:18:34;;;;;;;6.57;4.03;;;23.40;63.60;;;;;;5044436;28;20432;-73
2023/10/08 09:21:15;;;;;;;7.07;4.20;;;23.30;65.30;;;;;;5040640;28;20455;-73
2023/10/08 09:23:47;;;;;;;7.60;4.50;;;24.20;64.90;;;;;;5024921;28;20445;-71
2023/10/08 09:26:22;;;;;;;8.10;4.20;;;24.00;62.00;;;;;;5032583;28;20441;-73
2023/10/08 09:28:52;;;;;;;7.03;4.10;;;25.00;58.40;;;;;;5022738;28;20849;-73
2023/10/08 09:31:18;;;;;;;7.53;4.33;;;26.50;56.00;;;;;;5031988;28;20515;-71
2023/10/08 09:33:54;;;;;;;5.33;3.57;;;28.40;53.00;;;;;;5041131;28;20571;-71
2023/10/08 09:36:20;;;;;;;8.90;4.30;;;28.40;49.30;;;;;;5033010;28;20200;-71
2023/10/08 09:38:49;;;;;;;5.57;3.60;;;27.10;50.90;;;;;;5036590;28;20436;-73
2023/10/08 09:41:15;;;;;;;6.83;4.13;;;25.70;52.50;;;;;;5034709;28;20514;-72
2023/10/08 09:43:41;;;;;;;8.30;4.33;;;25.00;54.10;;;;;;5037174;28;20439;-73
2023/10/08 09:46:19;;;;;;;6.00;4.33;;;25.10;54.60;;;;;;5032074;28;20441;-73
2023/10/08 09:48:54;;;;;;;8.90;4.33;;;25.40;54.90;;;;;;5032312;28;20458;-73
2023/10/08 09:51:20;;;;;;;6.70;4.00;;;26.40;54.20;;;;;;5038461;28;20559;-73
2023/10/08 09:54:01;;;;;;;5.20;4.00;;;26.40;53.20;;;;;;5044212;28;20507;-73
2023/10/08 09:56:29;;;;;;;6.30;4.27;;;26.50;53.00;;;;;;5052603;28;20498;-73
2023/10/08 09:58:55;;;;;;;7.17;4.13;;;26.30;53.50;;;;;;5050694;28;20782;-73
2023/10/08 10:01:22;;;;;;;6.60;4.33;;;26.30;53.70;;;;;;5029221;28;20452;-73
2023/10/08 10:03:49;;;;;;;8.00;4.53;;;26.30;53.70;;;;;;5032339;28;20191;-73
2023/10/08 10:06:17;;;;;;;6.97;4.67;;;26.10;54.40;;;;;;5039897;28;20484;-72
2023/10/08 10:08:43;;;;;;;7.47;4.70;;;25.30;55.70;;;;;;5036307;28;20439;-72
2023/10/08 10:11:10;;;;;;;5.67;4.40;;;25.20;55.90;;;;;;5031296;28;20472;-72
2023/10/08 10:13:42;;;;;;;8.00;4.27;;;25.20;55.60;;;;;;5035945;28;20447;-72
2023/10/08 10:16:09;;;;;;;9.67;5.07;;;24.90;55.80;;;;;;5031807;28;20463;-72
2023/10/08 10:18:34;;;;;;;10.87;4.70;;;25.10;56.40;;;;;;5040639;28;20464;-73
2023/10/08 10:21:12;;;;;;;7.20;5.80;;;25.20;55.40;;;;;;5030498;28;20994;-73
2023/10/08 10:23:42;;;;;;;7.80;4.10;;;25.90;55.10;;;;;;5042193;28;20170;-73
2023/10/08 10:26:28;;;;;;;12.37;4.40;;;26.60;53.90;;;;;;5043423;28;20440;-73
2023/10/08 10:29:14;;;;;;;6.47;4.40;;;26.90;53.00;;;;;;5024842;28;20447;-72
2023/10/08 10:31:48;;;;;;;10.70;4.27;;;27.10;52.40;;;;;;5026821;28;20459;-73
2023/10/08 10:34:16;;;;;;;9.43;4.90;;;27.20;52.70;;;;;;5036857;28;20441;-73
2023/10/08 10:36:48;;;;;;;4.00;3.60;;;27.00;52.20;;;;;;5051904;28;20792;-73
2023/10/08 10:39:16;;;;;;;7.40;4.90;;;27.10;52.20;;;;;;5052261;28;20817;-72
2023/10/08 10:41:45;;;;;;;7.23;4.73;;;27.20;51.90;;;;;;5044557;28;20484;-70
2023/10/08 10:44:16;;;;;;;7.93;5.70;;;27.20;51.90;;;;;;5035899;28;20440;-70
2023/10/08 10:46:43;;;;;;;9.30;5.40;;;27.20;51.30;;;;;;5031192;28;20499;-70
2023/10/08 10:49:21;;;;;;;8.73;4.57;;;28.00;51.10;;;;;;5047772;28;20434;-74
2023/10/08 10:51:48;;;;;;;6.33;4.33;;;28.40;50.00;;;;;;5038770;28;20534;-72
2023/10/08 10:54:23;;;;;;;7.57;4.80;;;29.10;49.30;;;;;;5039037;28;20439;-73
2023/10/08 10:57:05;;;;;;;8.20;5.17;;;29.20;48.90;;;;;;5044956;28;20536;-70
2023/10/08 10:59:39;;;;;;;5.60;4.97;;;31.10;47.00;;;;;;5048071;28;20437;-70
2023/10/08 11:02:08;;;;;;;6.43;4.63;;;32.80;44.40;;;;;;5031817;28;20454;-71
2023/10/08 11:04:49;;;;;;;8.73;5.57;;;35.20;40.20;;;;;;5029381;28;20448;-70
2023/10/08 11:07:20;;;;;;;8.30;4.73;;;35.70;37.40;;;;;;5031728;28;20956;-70
2023/10/08 11:09:55;;;;;;;8.27;5.13;;;35.20;36.30;;;;;;5031100;28;20459;-74
2023/10/08 11:12:22;;;;;;;5.87;4.10;;;34.10;36.60;;;;;;5038446;28;20447;-72
2023/10/08 11:14:51;;;;;;;7.17;5.17;;;33.20;37.60;;;;;;5037536;28;20437;-72
2023/10/08 11:17:22;;;;;;;6.37;4.80;;;32.30;38.80;;;;;;5031630;28;20504;-73
2023/10/08 11:19:48;;;;;;;8.93;5.70;;;31.40;39.60;;;;;;5030771;28;20968;-72
2023/10/08 11:22:18;;;;;;;6.83;5.27;;;30.10;40.50;;;;;;5035566;28;20433;-73
2023/10/08 11:24:48;;;;;;;8.87;5.30;;;29.20;42.20;;;;;;5034142;28;20227;-72
2023/10/08 11:27:28;;;;;;;9.10;5.87;;;29.00;42.80;;;;;;5043223;28;20458;-72
2023/10/08 11:29:58;;;;;;;6.20;4.70;;;29.10;43.00;;;;;;5031109;28;20463;-73
2023/10/08 11:32:27;;;;;;;5.80;4.80;;;29.20;42.80;;;;;;5030244;28;20431;-73
2023/10/08 11:34:59;;;;;;;11.33;5.20;;;29.60;42.50;;;;;;5035839;28;20432;-72
2023/10/08 11:37:35;;;;;;;6.60;6.00;;;29.80;42.00;;;;;;5040669;28;20547;-70
2023/10/08 11:40:08;;;;;;;8.50;5.40;;;30.30;41.00;;;;;;5039429;28;20455;-70
2023/10/08 11:45:02;;;;;;;7.07;4.60;;;31.70;40.00;;;;;;5028141;28;20440;-71
2023/10/08 11:47:35;;;;;;;5.43;4.93;;;34.80;36.90;;;;;;5030228;28;20174;-71
2023/10/08 11:50:10;;;;;;;9.20;5.37;;;36.50;34.50;;;;;;5031411;28;20503;-71
2023/10/08 11:52:41;;;;;;;6.17;5.00;;;38.30;31.80;;;;;;5031245;28;20424;-71
2023/10/08 11:55:08;;;;;;;10.00;6.93;;;39.70;29.90;;;;;;5038035;28;20791;-71
2023/10/08 11:57:35;;;;;;;6.77;4.87;;;40.90;29.00;;;;;;5039327;28;20472;-71
2023/10/08 12:00:16;;;;;;;7.73;5.97;;;42.50;28.40;;;;;;5029838;28;20594;-70
2023/10/08 12:02:43;;;;;;;8.97;5.83;;;42.80;28.70;;;;;;5027085;28;20813;-70
2023/10/08 12:05:18;;;;;;;10.23;8.03;;;42.10;28.00;;;;;;5028494;28;20519;-71
2023/10/08 12:07:45;;;;;;;9.23;5.87;;;40.70;27.90;;;;;;5035604;28;20451;-71
2023/10/08 12:10:11;;;;;;;7.43;5.50;;;41.20;27.60;;;;;;5033003;28;20480;-71
2023/10/08 12:12:36;;;;;;;8.03;5.70;;;39.20;28.60;;;;;;5044864;28;20790;-71
2023/10/08 12:15:03;;;;;;;10.07;6.57;;;38.50;28.90;;;;;;5039755;28;20260;-71
2023/10/08 12:17:39;;;;;;;9.57;5.60;;;40.00;28.50;;;;;;5033487;28;20232;-71
2023/10/08 12:20:22;;;;;;;8.90;6.20;;;41.40;28.00;;;;;;5049891;28;20431;-70
2023/10/08 12:22:49;;;;;;;8.83;5.40;;;41.50;27.70;;;;;;5054806;28;20415;-70
2023/10/08 12:25:14;;;;;;;8.10;6.07;;;41.50;27.30;;;;;;5041625;28;20843;-70
2023/10/08 12:27:40;;;;;;;9.50;5.17;;;41.10;27.20;;;;;;5045983;28;20463;-70
2023/10/08 12:30:10;;;;;;;11.47;5.90;;;42.60;27.30;;;;;;5054347;28;20195;-70
2023/10/08 12:32:42;;;;;;;10.67;6.57;;;43.90;27.20;;;;;;5041734;28;20174;-70
2023/10/08 12:35:12;;;;;;;8.70;5.80;;;44.20;28.00;;;;;;5033426;28;20413;-71
2023/10/08 12:37:38;;;;;;;13.03;7.37;;;44.90;29.10;;;;;;5042404;28;20800;-70
2023/10/08 12:40:11;;;;;;;7.90;6.63;;;45.20;27.70;;;;;;5049616;28;20436;-71
2023/10/08 12:42:44;;;;;;;11.73;5.30;;;44.90;26.50;;;;;;5049148;28;20874;-70
2023/10/08 12:45:12;;;;;;;8.80;5.60;;;44.90;25.60;;;;;;5037279;28;20964;-70
2023/10/08 12:47:38;;;;;;;8.30;5.20;;;44.40;25.10;;;;;;5042749;28;20889;-70
2023/10/08 12:50:07;;;;;;;10.30;6.07;;;43.60;25.70;;;;;;5031860;28;20821;-70
2023/10/08 12:52:34;;;;;;;10.13;6.10;;;42.70;25.80;;;;;;5036246;28;20445;-71
2023/10/08 12:55:06;;;;;;;7.87;6.00;;;42.00;25.60;;;;;;5050431;28;20425;-70
2023/10/08 12:57:34;;;;;;;11.70;6.63;;;41.90;25.60;;;;;;5043613;28;20432;-70
2023/10/08 13:00:00;;;;;;;6.40;5.77;;;43.80;25.40;;;;;;5048452;28;20515;-70
2023/10/08 13:02:28;;;;;;;7.50;5.83;;;45.40;25.00;;;;;;5047062;28;20587;-71
2023/10/08 13:04:55;;;;;;;10.33;5.70;;;45.10;23.80;;;;;;5041298;28;20515;-70
2023/10/08 13:07:21;;;;;;;8.57;5.97;;;42.50;23.90;;;;;;5031328;28;20461;-70
2023/10/08 13:09:48;;;;;;;9.30;5.50;;;40.50;23.90;;;;;;5039507;28;20441;-70
2023/10/08 13:12:15;;;;;;;10.90;5.47;;;39.90;24.20;;;;;;5041159;28;20805;-70
2023/10/08 13:14:41;;;;;;;9.90;5.00;;;40.60;23.70;;;;;;5036910;28;20800;-70
2023/10/08 13:17:10;;;;;;;15.77;5.90;;;41.20;23.20;;;;;;5046967;28;20956;-70
2023/10/08 13:19:37;;;;;;;8.60;5.80;;;40.10;23.50;;;;;;5041755;28;20443;-70
2023/10/08 13:22:06;;;;;;;11.30;6.80;;;40.70;23.70;;;;;;5037032;28;20966;-71
2023/10/08 13:24:32;;;;;;;8.13;6.30;;;42.30;22.90;;;;;;5032823;28;20420;-71
2023/10/08 13:26:59;;;;;;;14.30;6.30;;;43.40;22.30;;;;;;5030707;28;20490;-71
2023/10/08 13:29:26;;;;;;;12.87;8.10;;;44.00;22.00;;;;;;5042887;28;20431;-71
2023/10/08 13:31:54;;;;;;;11.97;9.50;;;43.70;21.40;;;;;;5040867;28;20483;-71
2023/10/08 13:34:21;;;;;;;16.10;11.33;;;43.90;21.70;;;;;;5050172;28;20423;-71
2023/10/08 13:36:49;;;;;;;13.73;7.37;;;43.80;21.40;;;;;;5033150;28;20433;-71
2023/10/08 13:39:21;;;;;;;20.13;12.20;;;43.00;21.40;;;;;;5030051;28;20952;-71
2023/10/08 13:41:51;;;;;;;28.60;22.60;;;41.90;22.00;;;;;;5033032;28;20437;-70
2023/10/08 13:44:18;;;;;;;30.43;27.27;;;39.90;22.60;;;;;;5032744;28;20416;-71
2023/10/08 13:46:48;;;;;;;13.00;9.13;;;38.00;24.00;;;;;;5034256;28;20529;-71
2023/10/08 13:49:16;;;;;;;15.00;9.30;;;36.60;24.40;;;;;;5040123;28;20441;-70
2023/10/08 13:51:44;;;;;;;10.20;7.87;;;36.20;24.60;;;;;;5043646;28;20476;-70
2023/10/08 13:54:10;;;;;;;10.93;5.67;;;35.30;25.10;;;;;;5031278;28;20462;-70
2023/10/08 13:56:37;;;;;;;11.37;5.40;;;34.20;25.80;;;;;;5032867;28;20470;-70
2023/10/08 13:59:11;;;;;;;16.20;6.10;;;33.30;26.40;;;;;;5039440;28;20437;-70
2023/10/08 14:01:38;;;;;;;12.83;6.07;;;32.40;27.00;;;;;;5041103;28;20986;-69
2023/10/08 14:04:07;;;;;;;20.70;6.80;;;31.60;27.30;;;;;;5047564;28;20412;-69
2023/10/08 14:06:40;;;;;;;13.27;6.00;;;31.00;28.10;;;;;;5051861;28;20452;-70
2023/10/08 14:09:08;;;;;;;10.27;6.23;;;30.20;29.00;;;;;;5023793;28;20428;-70
2023/10/08 14:11:34;;;;;;;10.83;5.53;;;29.80;29.80;;;;;;5031818;28;20981;-73
2023/10/08 14:14:07;;;;;;;10.67;4.90;;;29.50;30.00;;;;;;5046699;28;20431;-72